sensor_id;sensor_type;location;lat;lon;timestamp;P1;durP1;ratioP1;P2;durP2;ratioP2
29030;SDS011;16122;50.236;11.734;2022-09-09T00:04:35;1.67;;;0.70;;
29030;SDS011;16122;50.236;11.734;2022-09-09T00:12:40;1.03;;;0.60;;
29030;SDS011;16122;50.236;11.734;2022-09-09T00:15:18;1.10;;;0.60;;
29030;SDS011;16122;50.236;11.734;2022-09-09T00:21:22;0.90;;;0.60;;
29030;SDS011;16122;50.236;11.734;2022-09-09T00:23:34;1.10;;;0.70;;
29030;SDS011;16122;50.236;11.734;2022-09-09T00:28:30;1.30;;;0.90;;
29030;SDS011;16122;50.236;11.734;2022-09-09T00:31:15;1.47;;;0.70;;
29030;SDS011;16122;50.236;11.734;2022-09-09T00:33:45;0.80;;;0.60;;
29030;SDS011;16122;50.236;11.734;2022-09-09T00:36:14;1.70;;;0.70;;
29030;SDS011;16122;50.236;11.734;2022-09-09T00:38:51;1.00;;;0.77;;
29030;SDS011;16122;50.236;11.734;2022-09-09T00:55:20;1.53;;;0.60;;
29030;SDS011;16122;50.236;11.734;2022-09-09T00:58:06;0.90;;;0.70;;
29030;SDS011;16122;50.236;11.734;2022-09-09T01:01:18;1.20;;;0.80;;
29030;SDS011;16122;50.236;11.734;2022-09-09T01:11:22;0.80;;;0.70;;
29030;SDS011;16122;50.236;11.734;2022-09-09T01:16:57;1.00;;;0.70;;
29030;SDS011;16122;50.236;11.734;2022-09-09T01:28:40;2.70;;;0.73;;
29030;SDS011;16122;50.236;11.734;2022-09-09T01:31:13;1.20;;;0.77;;
29030;SDS011;16122;50.236;11.734;2022-09-09T01:33:55;1.20;;;0.67;;
29030;SDS011;16122;50.236;11.734;2022-09-09T01:36:26;0.80;;;0.60;;
29030;SDS011;16122;50.236;11.734;2022-09-09T01:38:58;1.10;;;0.70;;
29030;SDS011;16122;50.236;11.734;2022-09-09T01:41:25;0.70;;;0.63;;
29030;SDS011;16122;50.236;11.734;2022-09-09T01:44:12;1.10;;;0.70;;
29030;SDS011;16122;50.236;11.734;2022-09-09T01:46:41;0.80;;;0.60;;
29030;SDS011;16122;50.236;11.734;2022-09-09T01:49:13;0.73;;;0.60;;
29030;SDS011;16122;50.236;11.734;2022-09-09T01:51:41;1.20;;;0.70;;
29030;SDS011;16122;50.236;11.734;2022-09-09T01:54:11;4.50;;;0.80;;
29030;SDS011;16122;50.236;11.734;2022-09-09T01:56:50;1.50;;;0.83;;
29030;SDS011;16122;50.236;11.734;2022-09-09T02:05:08;0.70;;;0.60;;
29030;SDS011;16122;50.236;11.734;2022-09-09T02:07:51;1.17;;;0.90;;
29030;SDS011;16122;50.236;11.734;2022-09-09T02:10:42;0.70;;;0.63;;
29030;SDS011;16122;50.236;11.734;2022-09-09T02:13:28;0.90;;;0.70;;
29030;SDS011;16122;50.236;11.734;2022-09-09T02:16:00;0.70;;;0.60;;
29030;SDS011;16122;50.236;11.734;2022-09-09T02:18:28;0.83;;;0.80;;
29030;SDS011;16122;50.236;11.734;2022-09-09T02:20:59;1.83;;;0.70;;
29030;SDS011;16122;50.236;11.734;2022-09-09T02:23:27;0.90;;;0.63;;
29030;SDS011;16122;50.236;11.734;2022-09-09T02:25:55;0.80;;;0.70;;
29030;SDS011;16122;50.236;11.734;2022-09-09T02:28:25;2.17;;;0.70;;
29030;SDS011;16122;50.236;11.734;2022-09-09T02:30:55;1.53;;;0.80;;
29030;SDS011;16122;50.236;11.734;2022-09-09T02:33:28;1.43;;;0.63;;
29030;SDS011;16122;50.236;11.734;2022-09-09T02:36:00;0.90;;;0.73;;
29030;SDS011;16122;50.236;11.734;2022-09-09T02:38:31;1.77;;;0.80;;
29030;SDS011;16122;50.236;11.734;2022-09-09T02:41:07;0.70;;;0.60;;
29030;SDS011;16122;50.236;11.734;2022-09-09T02:43:34;1.53;;;0.60;;
29030;SDS011;16122;50.236;11.734;2022-09-09T02:46:14;0.73;;;0.63;;
29030;SDS011;16122;50.236;11.734;2022-09-09T02:48:52;1.00;;;0.83;;
29030;SDS011;16122;50.236;11.734;2022-09-09T02:54:33;1.30;;;0.60;;
29030;SDS011;16122;50.236;11.734;2022-09-09T02:59:37;1.00;;;0.70;;
29030;SDS011;16122;50.236;11.734;2022-09-09T03:02:04;0.70;;;0.60;;
29030;SDS011;16122;50.236;11.734;2022-09-09T03:04:31;1.33;;;0.70;;
29030;SDS011;16122;50.236;11.734;2022-09-09T03:06:59;1.20;;;0.97;;
29030;SDS011;16122;50.236;11.734;2022-09-09T03:09:25;1.63;;;0.70;;
29030;SDS011;16122;50.236;11.734;2022-09-09T03:11:52;0.87;;;0.60;;
29030;SDS011;16122;50.236;11.734;2022-09-09T03:14:20;1.00;;;0.70;;
29030;SDS011;16122;50.236;11.734;2022-09-09T03:16:50;1.00;;;0.70;;
29030;SDS011;16122;50.236;11.734;2022-09-09T03:19:17;0.80;;;0.80;;
29030;SDS011;16122;50.236;11.734;2022-09-09T03:21:44;0.70;;;0.60;;
29030;SDS011;16122;50.236;11.734;2022-09-09T03:24:11;1.10;;;0.70;;
29030;SDS011;16122;50.236;11.734;2022-09-09T03:26:37;0.90;;;0.70;;
29030;SDS011;16122;50.236;11.734;2022-09-09T03:29:06;0.90;;;0.70;;
29030;SDS011;16122;50.236;11.734;2022-09-09T03:31:35;1.70;;;0.73;;
29030;SDS011;16122;50.236;11.734;2022-09-09T03:34:02;0.70;;;0.60;;
29030;SDS011;16122;50.236;11.734;2022-09-09T03:36:31;0.77;;;0.67;;
29030;SDS011;16122;50.236;11.734;2022-09-09T03:38:57;0.80;;;0.80;;
29030;SDS011;16122;50.236;11.734;2022-09-09T03:41:27;1.00;;;0.60;;
29030;SDS011;16122;50.236;11.734;2022-09-09T03:43:54;0.93;;;0.63;;
29030;SDS011;16122;50.236;11.734;2022-09-09T03:46:22;1.20;;;0.70;;
29030;SDS011;16122;50.236;11.734;2022-09-09T03:48:50;1.00;;;0.60;;
29030;SDS011;16122;50.236;11.734;2022-09-09T03:51:17;0.70;;;0.60;;
29030;SDS011;16122;50.236;11.734;2022-09-09T03:53:44;0.70;;;0.60;;
29030;SDS011;16122;50.236;11.734;2022-09-09T03:56:11;0.93;;;0.60;;
29030;SDS011;16122;50.236;11.734;2022-09-09T03:58:37;1.23;;;0.70;;
29030;SDS011;16122;50.236;11.734;2022-09-09T04:01:07;0.70;;;0.60;;
29030;SDS011;16122;50.236;11.734;2022-09-09T04:03:35;1.00;;;0.70;;
29030;SDS011;16122;50.236;11.734;2022-09-09T04:06:02;1.00;;;0.80;;
29030;SDS011;16122;50.236;11.734;2022-09-09T04:08:30;1.13;;;0.70;;
29030;SDS011;16122;50.236;11.734;2022-09-09T04:10:57;1.33;;;0.80;;
29030;SDS011;16122;50.236;11.734;2022-09-09T04:13:26;2.40;;;0.73;;
29030;SDS011;16122;50.236;11.734;2022-09-09T04:15:54;2.03;;;0.90;;
29030;SDS011;16122;50.236;11.734;2022-09-09T04:18:22;9.60;;;1.00;;
29030;SDS011;16122;50.236;11.734;2022-09-09T04:20:49;3.10;;;1.00;;
29030;SDS011;16122;50.236;11.734;2022-09-09T04:23:19;1.83;;;1.10;;
29030;SDS011;16122;50.236;11.734;2022-09-09T04:25:49;1.23;;;0.70;;
29030;SDS011;16122;50.236;11.734;2022-09-09T04:28:18;2.87;;;1.17;;
29030;SDS011;16122;50.236;11.734;2022-09-09T04:30:46;1.40;;;0.97;;
29030;SDS011;16122;50.236;11.734;2022-09-09T04:33:12;7.13;;;1.00;;
29030;SDS011;16122;50.236;11.734;2022-09-09T04:35:43;1.97;;;1.00;;
29030;SDS011;16122;50.236;11.734;2022-09-09T04:38:13;1.30;;;0.80;;
29030;SDS011;16122;50.236;11.734;2022-09-09T04:40:46;1.27;;;1.00;;
29030;SDS011;16122;50.236;11.734;2022-09-09T04:43:13;1.47;;;0.90;;
29030;SDS011;16122;50.236;11.734;2022-09-09T04:45:46;1.40;;;0.90;;
29030;SDS011;16122;50.236;11.734;2022-09-09T04:48:13;2.80;;;0.77;;
29030;SDS011;16122;50.236;11.734;2022-09-09T04:50:40;4.87;;;1.27;;
29030;SDS011;16122;50.236;11.734;2022-09-09T04:53:08;3.57;;;1.00;;
29030;SDS011;16122;50.236;11.734;2022-09-09T04:55:36;6.57;;;1.07;;
29030;SDS011;16122;50.236;11.734;2022-09-09T04:58:03;1.80;;;0.80;;
29030;SDS011;16122;50.236;11.734;2022-09-09T05:00:31;2.50;;;0.90;;
29030;SDS011;16122;50.236;11.734;2022-09-09T05:03:02;1.87;;;0.80;;
29030;SDS011;16122;50.236;11.734;2022-09-09T05:05:29;2.87;;;0.87;;
29030;SDS011;16122;50.236;11.734;2022-09-09T05:08:00;0.90;;;0.60;;
29030;SDS011;16122;50.236;11.734;2022-09-09T05:10:30;1.77;;;1.17;;
29030;SDS011;16122;50.236;11.734;2022-09-09T05:12:57;3.60;;;1.00;;
29030;SDS011;16122;50.236;11.734;2022-09-09T05:15:25;1.30;;;0.90;;
29030;SDS011;16122;50.236;11.734;2022-09-09T05:17:51;1.90;;;1.03;;
29030;SDS011;16122;50.236;11.734;2022-09-09T05:20:21;5.00;;;0.90;;
29030;SDS011;16122;50.236;11.734;2022-09-09T05:22:52;0.90;;;0.80;;
29030;SDS011;16122;50.236;11.734;2022-09-09T05:25:23;2.10;;;0.90;;
29030;SDS011;16122;50.236;11.734;2022-09-09T05:27:53;2.47;;;1.07;;
29030;SDS011;16122;50.236;11.734;2022-09-09T05:30:19;2.03;;;0.90;;
29030;SDS011;16122;50.236;11.734;2022-09-09T05:32:45;1.80;;;0.80;;
29030;SDS011;16122;50.236;11.734;2022-09-09T05:35:14;1.10;;;0.70;;
29030;SDS011;16122;50.236;11.734;2022-09-09T05:37:41;1.40;;;1.00;;
29030;SDS011;16122;50.236;11.734;2022-09-09T05:40:07;2.43;;;0.83;;
29030;SDS011;16122;50.236;11.734;2022-09-09T05:42:34;1.20;;;0.90;;
29030;SDS011;16122;50.236;11.734;2022-09-09T05:45:00;1.40;;;0.90;;
29030;SDS011;16122;50.236;11.734;2022-09-09T05:47:26;1.77;;;0.70;;
29030;SDS011;16122;50.236;11.734;2022-09-09T05:49:54;1.47;;;0.70;;
29030;SDS011;16122;50.236;11.734;2022-09-09T05:52:21;3.63;;;1.00;;
29030;SDS011;16122;50.236;11.734;2022-09-09T05:54:49;2.20;;;0.90;;
29030;SDS011;16122;50.236;11.734;2022-09-09T05:57:15;2.73;;;1.07;;
29030;SDS011;16122;50.236;11.734;2022-09-09T05:59:42;1.27;;;0.80;;
29030;SDS011;16122;50.236;11.734;2022-09-09T06:02:09;1.70;;;1.07;;
29030;SDS011;16122;50.236;11.734;2022-09-09T06:04:36;2.03;;;0.90;;
29030;SDS011;16122;50.236;11.734;2022-09-09T06:07:03;2.47;;;0.97;;
29030;SDS011;16122;50.236;11.734;2022-09-09T06:09:31;3.13;;;1.20;;
29030;SDS011;16122;50.236;11.734;2022-09-09T06:11:57;1.20;;;1.00;;
29030;SDS011;16122;50.236;11.734;2022-09-09T06:14:24;2.97;;;0.90;;
29030;SDS011;16122;50.236;11.734;2022-09-09T06:16:52;2.13;;;0.90;;
29030;SDS011;16122;50.236;11.734;2022-09-09T06:19:22;1.60;;;1.00;;
29030;SDS011;16122;50.236;11.734;2022-09-09T06:21:52;1.80;;;0.90;;
29030;SDS011;16122;50.236;11.734;2022-09-09T06:24:18;1.20;;;0.90;;
29030;SDS011;16122;50.236;11.734;2022-09-09T06:26:45;2.23;;;1.10;;
29030;SDS011;16122;50.236;11.734;2022-09-09T06:29:15;1.70;;;0.77;;
29030;SDS011;16122;50.236;11.734;2022-09-09T06:31:41;1.70;;;1.00;;
29030;SDS011;16122;50.236;11.734;2022-09-09T06:34:14;1.00;;;0.73;;
29030;SDS011;16122;50.236;11.734;2022-09-09T06:36:44;1.00;;;0.80;;
29030;SDS011;16122;50.236;11.734;2022-09-09T06:39:11;1.10;;;0.80;;
29030;SDS011;16122;50.236;11.734;2022-09-09T06:41:38;2.80;;;0.80;;
29030;SDS011;16122;50.236;11.734;2022-09-09T06:44:07;1.67;;;0.80;;
29030;SDS011;16122;50.236;11.734;2022-09-09T06:46:39;2.30;;;0.90;;
29030;SDS011;16122;50.236;11.734;2022-09-09T06:49:07;1.43;;;0.90;;
29030;SDS011;16122;50.236;11.734;2022-09-09T06:51:34;4.30;;;0.80;;
29030;SDS011;16122;50.236;11.734;2022-09-09T06:54:03;1.10;;;0.90;;
29030;SDS011;16122;50.236;11.734;2022-09-09T06:56:37;1.20;;;0.87;;
29030;SDS011;16122;50.236;11.734;2022-09-09T06:59:11;1.33;;;0.80;;
29030;SDS011;16122;50.236;11.734;2022-09-09T07:01:38;1.67;;;0.87;;
29030;SDS011;16122;50.236;11.734;2022-09-09T07:04:12;1.20;;;1.00;;
29030;SDS011;16122;50.236;11.734;2022-09-09T07:06:42;1.83;;;0.80;;
29030;SDS011;16122;50.236;11.734;2022-09-09T07:09:13;0.90;;;0.60;;
29030;SDS011;16122;50.236;11.734;2022-09-09T07:11:47;0.97;;;0.80;;
29030;SDS011;16122;50.236;11.734;2022-09-09T07:14:15;2.27;;;1.17;;
29030;SDS011;16122;50.236;11.734;2022-09-09T07:16:45;1.07;;;0.97;;
29030;SDS011;16122;50.236;11.734;2022-09-09T07:19:13;1.20;;;0.70;;
29030;SDS011;16122;50.236;11.734;2022-09-09T07:21:41;2.40;;;1.00;;
29030;SDS011;16122;50.236;11.734;2022-09-09T07:24:09;1.70;;;0.90;;
29030;SDS011;16122;50.236;11.734;2022-09-09T07:26:38;1.40;;;0.90;;
29030;SDS011;16122;50.236;11.734;2022-09-09T07:29:05;1.70;;;1.53;;
29030;SDS011;16122;50.236;11.734;2022-09-09T07:31:33;2.13;;;0.90;;
29030;SDS011;16122;50.236;11.734;2022-09-09T07:34:03;0.90;;;0.77;;
29030;SDS011;16122;50.236;11.734;2022-09-09T07:36:31;1.93;;;0.90;;
29030;SDS011;16122;50.236;11.734;2022-09-09T07:39:03;1.00;;;0.90;;
29030;SDS011;16122;50.236;11.734;2022-09-09T07:41:36;1.40;;;0.80;;
29030;SDS011;16122;50.236;11.734;2022-09-09T07:44:14;1.40;;;1.10;;
29030;SDS011;16122;50.236;11.734;2022-09-09T07:46:49;5.20;;;0.90;;
29030;SDS011;16122;50.236;11.734;2022-09-09T07:49:19;2.90;;;1.00;;
29030;SDS011;16122;50.236;11.734;2022-09-09T07:51:46;1.10;;;0.97;;
29030;SDS011;16122;50.236;11.734;2022-09-09T07:54:15;0.80;;;0.70;;
29030;SDS011;16122;50.236;11.734;2022-09-09T07:56:46;1.00;;;0.90;;
29030;SDS011;16122;50.236;11.734;2022-09-09T07:59:13;0.77;;;0.73;;
29030;SDS011;16122;50.236;11.734;2022-09-09T08:01:45;1.83;;;0.80;;
29030;SDS011;16122;50.236;11.734;2022-09-09T08:04:16;1.33;;;1.20;;
29030;SDS011;16122;50.236;11.734;2022-09-09T08:06:49;1.90;;;1.10;;
29030;SDS011;16122;50.236;11.734;2022-09-09T08:09:20;1.30;;;0.90;;
29030;SDS011;16122;50.236;11.734;2022-09-09T08:11:48;1.20;;;1.10;;
29030;SDS011;16122;50.236;11.734;2022-09-09T08:14:15;1.77;;;0.90;;
29030;SDS011;16122;50.236;11.734;2022-09-09T08:16:42;3.00;;;1.30;;
29030;SDS011;16122;50.236;11.734;2022-09-09T08:19:12;1.17;;;0.90;;
29030;SDS011;16122;50.236;11.734;2022-09-09T08:21:41;1.70;;;0.80;;
29030;SDS011;16122;50.236;11.734;2022-09-09T08:24:09;1.30;;;1.00;;
29030;SDS011;16122;50.236;11.734;2022-09-09T08:26:38;1.40;;;0.90;;
29030;SDS011;16122;50.236;11.734;2022-09-09T08:29:07;0.90;;;0.80;;
29030;SDS011;16122;50.236;11.734;2022-09-09T08:31:37;1.20;;;0.80;;
29030;SDS011;16122;50.236;11.734;2022-09-09T08:34:06;1.10;;;0.90;;
29030;SDS011;16122;50.236;11.734;2022-09-09T08:36:34;1.37;;;0.93;;
29030;SDS011;16122;50.236;11.734;2022-09-09T08:39:03;1.33;;;0.90;;
29030;SDS011;16122;50.236;11.734;2022-09-09T08:47:03;1.87;;;1.10;;
29030;SDS011;16122;50.236;11.734;2022-09-09T08:52:18;0.90;;;0.80;;
29030;SDS011;16122;50.236;11.734;2022-09-09T08:54:47;1.17;;;1.00;;
29030;SDS011;16122;50.236;11.734;2022-09-09T08:57:15;1.90;;;1.10;;
29030;SDS011;16122;50.236;11.734;2022-09-09T08:59:46;1.27;;;1.00;;
29030;SDS011;16122;50.236;11.734;2022-09-09T09:02:15;1.77;;;1.20;;
29030;SDS011;16122;50.236;11.734;2022-09-09T09:10:20;2.37;;;1.07;;
29030;SDS011;16122;50.236;11.734;2022-09-09T09:13:20;3.27;;;1.00;;
29030;SDS011;16122;50.236;11.734;2022-09-09T09:16:00;1.30;;;1.10;;
29030;SDS011;16122;50.236;11.734;2022-09-09T09:18:32;1.20;;;0.90;;
29030;SDS011;16122;50.236;11.734;2022-09-09T09:23:45;1.50;;;1.20;;
29030;SDS011;16122;50.236;11.734;2022-09-09T09:26:19;1.63;;;0.90;;
29030;SDS011;16122;50.236;11.734;2022-09-09T09:28:47;2.10;;;1.00;;
29030;SDS011;16122;50.236;11.734;2022-09-09T09:31:15;1.30;;;1.10;;
29030;SDS011;16122;50.236;11.734;2022-09-09T09:33:50;3.43;;;1.10;;
29030;SDS011;16122;50.236;11.734;2022-09-09T09:36:19;2.83;;;1.10;;
29030;SDS011;16122;50.236;11.734;2022-09-09T09:41:40;2.43;;;1.40;;
29030;SDS011;16122;50.236;11.734;2022-09-09T09:47:08;2.17;;;1.03;;
29030;SDS011;16122;50.236;11.734;2022-09-09T09:49:39;2.30;;;0.90;;
29030;SDS011;16122;50.236;11.734;2022-09-09T09:52:17;3.60;;;1.20;;
29030;SDS011;16122;50.236;11.734;2022-09-09T09:54:47;2.60;;;1.20;;
29030;SDS011;16122;50.236;11.734;2022-09-09T09:57:14;1.40;;;1.17;;
29030;SDS011;16122;50.236;11.734;2022-09-09T09:59:43;1.67;;;1.10;;
29030;SDS011;16122;50.236;11.734;2022-09-09T10:02:23;2.50;;;1.23;;
29030;SDS011;16122;50.236;11.734;2022-09-09T10:05:04;1.67;;;0.93;;
29030;SDS011;16122;50.236;11.734;2022-09-09T10:07:35;2.47;;;1.17;;
29030;SDS011;16122;50.236;11.734;2022-09-09T10:10:02;2.80;;;1.17;;
29030;SDS011;16122;50.236;11.734;2022-09-09T10:21:01;2.40;;;1.20;;
29030;SDS011;16122;50.236;11.734;2022-09-09T10:29:40;2.83;;;1.10;;
29030;SDS011;16122;50.236;11.734;2022-09-09T10:38:10;2.30;;;1.00;;
29030;SDS011;16122;50.236;11.734;2022-09-09T10:53:50;3.70;;;1.30;;
29030;SDS011;16122;50.236;11.734;2022-09-09T10:56:28;5.10;;;2.00;;
29030;SDS011;16122;50.236;11.734;2022-09-09T10:59:14;13.70;;;2.80;;
29030;SDS011;16122;50.236;11.734;2022-09-09T11:01:52;6.80;;;2.60;;
29030;SDS011;16122;50.236;11.734;2022-09-09T11:04:42;10.70;;;2.50;;
29030;SDS011;16122;50.236;11.734;2022-09-09T11:07:19;7.10;;;3.00;;
29030;SDS011;16122;50.236;11.734;2022-09-09T11:09:53;11.97;;;3.30;;
29030;SDS011;16122;50.236;11.734;2022-09-09T11:12:25;9.90;;;3.30;;
29030;SDS011;16122;50.236;11.734;2022-09-09T11:14:55;9.17;;;3.40;;
29030;SDS011;16122;50.236;11.734;2022-09-09T11:17:33;8.50;;;3.23;;
29030;SDS011;16122;50.236;11.734;2022-09-09T11:20:12;10.90;;;2.90;;
29030;SDS011;16122;50.236;11.734;2022-09-09T11:22:42;10.73;;;3.07;;
29030;SDS011;16122;50.236;11.734;2022-09-09T11:25:17;8.13;;;2.90;;
29030;SDS011;16122;50.236;11.734;2022-09-09T11:41:39;5.90;;;2.53;;
29030;SDS011;16122;50.236;11.734;2022-09-09T11:44:12;5.93;;;2.13;;
29030;SDS011;16122;50.236;11.734;2022-09-09T11:46:59;6.47;;;2.40;;
29030;SDS011;16122;50.236;11.734;2022-09-09T11:49:29;8.10;;;2.47;;
29030;SDS011;16122;50.236;11.734;2022-09-09T11:52:18;5.50;;;1.93;;
29030;SDS011;16122;50.236;11.734;2022-09-09T11:54:46;7.13;;;2.27;;
29030;SDS011;16122;50.236;11.734;2022-09-09T11:57:22;6.70;;;2.20;;
29030;SDS011;16122;50.236;11.734;2022-09-09T12:03:03;3.87;;;2.23;;
29030;SDS011;16122;50.236;11.734;2022-09-09T12:05:38;4.53;;;1.80;;
29030;SDS011;16122;50.236;11.734;2022-09-09T12:08:09;10.97;;;1.50;;
29030;SDS011;16122;50.236;11.734;2022-09-09T12:10:52;4.10;;;2.07;;
29030;SDS011;16122;50.236;11.734;2022-09-09T12:13:23;3.97;;;1.90;;
29030;SDS011;16122;50.236;11.734;2022-09-09T12:15:54;6.77;;;1.63;;
29030;SDS011;16122;50.236;11.734;2022-09-09T12:18:37;6.87;;;1.97;;
29030;SDS011;16122;50.236;11.734;2022-09-09T12:23:43;5.60;;;2.10;;
29030;SDS011;16122;50.236;11.734;2022-09-09T12:26:34;7.67;;;2.00;;
29030;SDS011;16122;50.236;11.734;2022-09-09T12:32:11;5.27;;;2.00;;
29030;SDS011;16122;50.236;11.734;2022-09-09T12:34:53;7.07;;;1.90;;
29030;SDS011;16122;50.236;11.734;2022-09-09T12:37:35;5.47;;;1.57;;
29030;SDS011;16122;50.236;11.734;2022-09-09T12:40:23;3.03;;;1.40;;
29030;SDS011;16122;50.236;11.734;2022-09-09T12:42:51;5.00;;;1.53;;
29030;SDS011;16122;50.236;11.734;2022-09-09T12:45:21;2.43;;;1.50;;
29030;SDS011;16122;50.236;11.734;2022-09-09T12:48:08;7.77;;;1.73;;
29030;SDS011;16122;50.236;11.734;2022-09-09T12:50:37;5.27;;;1.40;;
29030;SDS011;16122;50.236;11.734;2022-09-09T12:53:12;3.30;;;1.13;;
29030;SDS011;16122;50.236;11.734;2022-09-09T12:55:48;3.77;;;1.17;;
29030;SDS011;16122;50.236;11.734;2022-09-09T12:58:20;2.20;;;1.30;;
29030;SDS011;16122;50.236;11.734;2022-09-09T13:00:50;1.83;;;1.23;;
29030;SDS011;16122;50.236;11.734;2022-09-09T13:03:18;4.17;;;1.23;;
29030;SDS011;16122;50.236;11.734;2022-09-09T13:05:46;1.87;;;1.23;;
29030;SDS011;16122;50.236;11.734;2022-09-09T13:08:13;3.90;;;1.20;;
29030;SDS011;16122;50.236;11.734;2022-09-09T13:10:47;4.17;;;1.00;;
29030;SDS011;16122;50.236;11.734;2022-09-09T13:13:24;3.13;;;1.20;;
29030;SDS011;16122;50.236;11.734;2022-09-09T13:15:57;2.50;;;1.40;;
29030;SDS011;16122;50.236;11.734;2022-09-09T13:18:24;2.10;;;1.00;;
29030;SDS011;16122;50.236;11.734;2022-09-09T13:20:54;2.37;;;1.23;;
29030;SDS011;16122;50.236;11.734;2022-09-09T13:23:23;5.10;;;1.10;;
29030;SDS011;16122;50.236;11.734;2022-09-09T13:25:59;1.83;;;0.80;;
29030;SDS011;16122;50.236;11.734;2022-09-09T13:28:28;1.33;;;1.00;;
29030;SDS011;16122;50.236;11.734;2022-09-09T13:30:58;4.40;;;1.30;;
29030;SDS011;16122;50.236;11.734;2022-09-09T13:33:29;2.27;;;1.10;;
29030;SDS011;16122;50.236;11.734;2022-09-09T13:36:03;5.90;;;1.07;;
29030;SDS011;16122;50.236;11.734;2022-09-09T13:38:40;3.03;;;1.00;;
29030;SDS011;16122;50.236;11.734;2022-09-09T13:41:23;2.70;;;1.23;;
29030;SDS011;16122;50.236;11.734;2022-09-09T13:43:53;4.70;;;1.23;;
29030;SDS011;16122;50.236;11.734;2022-09-09T13:48:59;4.90;;;1.70;;
29030;SDS011;16122;50.236;11.734;2022-09-09T13:51:44;2.00;;;1.23;;
29030;SDS011;16122;50.236;11.734;2022-09-09T13:54:19;2.17;;;1.10;;
29030;SDS011;16122;50.236;11.734;2022-09-09T13:56:45;3.17;;;1.40;;
29030;SDS011;16122;50.236;11.734;2022-09-09T13:59:12;2.27;;;1.07;;
29030;SDS011;16122;50.236;11.734;2022-09-09T14:01:45;1.30;;;1.10;;
29030;SDS011;16122;50.236;11.734;2022-09-09T14:04:11;1.67;;;1.00;;
29030;SDS011;16122;50.236;11.734;2022-09-09T14:06:38;3.50;;;1.10;;
29030;SDS011;16122;50.236;11.734;2022-09-09T14:09:05;1.30;;;1.07;;
29030;SDS011;16122;50.236;11.734;2022-09-09T14:11:33;3.27;;;1.53;;
29030;SDS011;16122;50.236;11.734;2022-09-09T14:13:59;4.43;;;1.00;;
29030;SDS011;16122;50.236;11.734;2022-09-09T14:16:26;2.10;;;1.03;;
29030;SDS011;16122;50.236;11.734;2022-09-09T14:18:52;2.37;;;0.93;;
29030;SDS011;16122;50.236;11.734;2022-09-09T14:21:21;2.00;;;1.43;;
29030;SDS011;16122;50.236;11.734;2022-09-09T14:23:47;2.23;;;0.93;;
29030;SDS011;16122;50.236;11.734;2022-09-09T14:26:13;1.90;;;0.93;;
29030;SDS011;16122;50.236;11.734;2022-09-09T14:28:40;2.43;;;0.90;;
29030;SDS011;16122;50.236;11.734;2022-09-09T14:31:06;2.33;;;0.83;;
29030;SDS011;16122;50.236;11.734;2022-09-09T14:33:32;3.20;;;0.93;;
29030;SDS011;16122;50.236;11.734;2022-09-09T14:36:00;2.03;;;0.90;;
29030;SDS011;16122;50.236;11.734;2022-09-09T14:38:30;2.50;;;1.00;;
29030;SDS011;16122;50.236;11.734;2022-09-09T14:40:59;1.57;;;1.13;;
29030;SDS011;16122;50.236;11.734;2022-09-09T14:43:28;4.60;;;0.83;;
29030;SDS011;16122;50.236;11.734;2022-09-09T14:45:56;2.43;;;1.47;;
29030;SDS011;16122;50.236;11.734;2022-09-09T14:48:22;2.20;;;1.00;;
29030;SDS011;16122;50.236;11.734;2022-09-09T14:50:48;5.67;;;1.30;;
29030;SDS011;16122;50.236;11.734;2022-09-09T14:53:16;5.17;;;1.10;;
29030;SDS011;16122;50.236;11.734;2022-09-09T14:55:42;1.50;;;1.00;;
29030;SDS011;16122;50.236;11.734;2022-09-09T14:58:07;1.73;;;1.00;;
29030;SDS011;16122;50.236;11.734;2022-09-09T15:00:33;2.00;;;1.00;;
29030;SDS011;16122;50.236;11.734;2022-09-09T15:02:59;1.27;;;0.90;;
29030;SDS011;16122;50.236;11.734;2022-09-09T15:05:25;1.77;;;0.90;;
29030;SDS011;16122;50.236;11.734;2022-09-09T15:07:52;3.67;;;1.83;;
29030;SDS011;16122;50.236;11.734;2022-09-09T15:10:18;3.90;;;1.20;;
29030;SDS011;16122;50.236;11.734;2022-09-09T15:12:44;4.20;;;1.03;;
29030;SDS011;16122;50.236;11.734;2022-09-09T15:15:10;2.90;;;1.20;;
29030;SDS011;16122;50.236;11.734;2022-09-09T15:17:36;2.70;;;1.40;;
29030;SDS011;16122;50.236;11.734;2022-09-09T15:20:04;1.53;;;0.93;;
29030;SDS011;16122;50.236;11.734;2022-09-09T15:22:31;3.03;;;1.13;;
29030;SDS011;16122;50.236;11.734;2022-09-09T15:24:59;3.87;;;1.10;;
29030;SDS011;16122;50.236;11.734;2022-09-09T15:27:24;2.60;;;0.90;;
29030;SDS011;16122;50.236;11.734;2022-09-09T15:29:50;5.30;;;0.97;;
29030;SDS011;16122;50.236;11.734;2022-09-09T15:32:17;2.47;;;0.90;;
29030;SDS011;16122;50.236;11.734;2022-09-09T15:34:43;2.60;;;1.00;;
29030;SDS011;16122;50.236;11.734;2022-09-09T15:37:12;1.77;;;0.80;;
29030;SDS011;16122;50.236;11.734;2022-09-09T15:39:39;2.00;;;0.90;;
29030;SDS011;16122;50.236;11.734;2022-09-09T15:42:06;1.10;;;0.80;;
29030;SDS011;16122;50.236;11.734;2022-09-09T15:44:40;1.47;;;1.00;;
29030;SDS011;16122;50.236;11.734;2022-09-09T15:47:07;2.13;;;1.10;;
29030;SDS011;16122;50.236;11.734;2022-09-09T15:49:37;5.83;;;1.00;;
29030;SDS011;16122;50.236;11.734;2022-09-09T15:52:04;4.70;;;0.87;;
29030;SDS011;16122;50.236;11.734;2022-09-09T15:54:31;1.23;;;1.00;;
29030;SDS011;16122;50.236;11.734;2022-09-09T15:57:00;1.27;;;0.90;;
29030;SDS011;16122;50.236;11.734;2022-09-09T15:59:31;1.80;;;1.10;;
29030;SDS011;16122;50.236;11.734;2022-09-09T16:01:58;1.83;;;0.90;;
29030;SDS011;16122;50.236;11.734;2022-09-09T16:04:25;2.30;;;0.90;;
29030;SDS011;16122;50.236;11.734;2022-09-09T16:06:55;2.83;;;1.03;;
29030;SDS011;16122;50.236;11.734;2022-09-09T16:09:24;1.73;;;0.87;;
29030;SDS011;16122;50.236;11.734;2022-09-09T16:11:50;5.80;;;1.20;;
29030;SDS011;16122;50.236;11.734;2022-09-09T16:14:18;3.13;;;0.80;;
29030;SDS011;16122;50.236;11.734;2022-09-09T16:16:44;1.90;;;1.10;;
29030;SDS011;16122;50.236;11.734;2022-09-09T16:19:11;1.10;;;0.87;;
29030;SDS011;16122;50.236;11.734;2022-09-09T16:21:40;3.83;;;1.10;;
29030;SDS011;16122;50.236;11.734;2022-09-09T16:24:11;2.70;;;1.10;;
29030;SDS011;16122;50.236;11.734;2022-09-09T16:26:40;1.63;;;0.90;;
29030;SDS011;16122;50.236;11.734;2022-09-09T16:29:11;1.70;;;0.80;;
29030;SDS011;16122;50.236;11.734;2022-09-09T16:31:38;4.60;;;1.20;;
29030;SDS011;16122;50.236;11.734;2022-09-09T16:34:05;2.50;;;0.80;;
29030;SDS011;16122;50.236;11.734;2022-09-09T16:36:33;4.20;;;0.90;;
29030;SDS011;16122;50.236;11.734;2022-09-09T16:39:01;2.10;;;0.80;;
29030;SDS011;16122;50.236;11.734;2022-09-09T16:41:30;3.97;;;1.10;;
29030;SDS011;16122;50.236;11.734;2022-09-09T16:43:57;2.07;;;0.80;;
29030;SDS011;16122;50.236;11.734;2022-09-09T16:46:25;2.60;;;0.90;;
29030;SDS011;16122;50.236;11.734;2022-09-09T16:48:53;2.30;;;1.13;;
29030;SDS011;16122;50.236;11.734;2022-09-09T16:51:25;2.67;;;1.10;;
29030;SDS011;16122;50.236;11.734;2022-09-09T16:53:53;1.50;;;1.07;;
29030;SDS011;16122;50.236;11.734;2022-09-09T16:56:20;1.50;;;1.00;;
29030;SDS011;16122;50.236;11.734;2022-09-09T16:58:51;1.57;;;0.87;;
29030;SDS011;16122;50.236;11.734;2022-09-09T17:01:20;0.90;;;0.80;;
29030;SDS011;16122;50.236;11.734;2022-09-09T17:03:56;1.67;;;1.30;;
29030;SDS011;16122;50.236;11.734;2022-09-09T17:06:24;1.97;;;0.90;;
29030;SDS011;16122;50.236;11.734;2022-09-09T17:08:54;4.30;;;1.10;;
29030;SDS011;16122;50.236;11.734;2022-09-09T17:11:25;2.67;;;1.00;;
29030;SDS011;16122;50.236;11.734;2022-09-09T17:13:52;7.50;;;1.00;;